sensor_id;sensor_type;location;lat;lon;timestamp;temperature;humidity
28767;DHT22;15921;52.034;20.650;2023-04-25T00:00:52;12.30;99.90
28767;DHT22;15921;52.034;20.650;2023-04-25T00:03:18;12.20;99.90
28767;DHT22;15921;52.034;20.650;2023-04-25T00:05:45;12.20;99.90
28767;DHT22;15921;52.034;20.650;2023-04-25T00:08:11;12.20;99.90
28767;DHT22;15921;52.034;20.650;2023-04-25T00:10:36;12.20;99.90
28767;DHT22;15921;52.034;20.650;2023-04-25T00:13:02;12.10;99.90
28767;DHT22;15921;52.034;20.650;2023-04-25T00:15:28;12.10;99.90
28767;DHT22;15921;52.034;20.650;2023-04-25T00:17:56;12.00;99.90
28767;DHT22;15921;52.034;20.650;2023-04-25T00:20:22;12.00;99.90
28767;DHT22;15921;52.034;20.650;2023-04-25T00:22:49;12.00;99.90
28767;DHT22;15921;52.034;20.650;2023-04-25T00:25:15;11.90;99.90
28767;DHT22;15921;52.034;20.650;2023-04-25T00:27:40;11.90;99.90
28767;DHT22;15921;52.034;20.650;2023-04-25T00:30:07;11.90;99.90
28767;DHT22;15921;52.034;20.650;2023-04-25T00:32:33;11.80;99.90
28767;DHT22;15921;52.034;20.650;2023-04-25T00:34:59;11.90;99.90
28767;DHT22;15921;52.034;20.650;2023-04-25T00:37:25;11.80;99.90
28767;DHT22;15921;52.034;20.650;2023-04-25T00:39:51;11.80;99.90
28767;DHT22;15921;52.034;20.650;2023-04-25T00:42:19;11.80;99.90
28767;DHT22;15921;52.034;20.650;2023-04-25T00:44:45;11.70;99.90
28767;DHT22;15921;52.034;20.650;2023-04-25T00:47:11;11.70;99.90
28767;DHT22;15921;52.034;20.650;2023-04-25T00:49:37;11.60;99.90
28767;DHT22;15921;52.034;20.650;2023-04-25T00:52:03;11.60;99.90
28767;DHT22;15921;52.034;20.650;2023-04-25T00:54:29;11.50;99.90
28767;DHT22;15921;52.034;20.650;2023-04-25T00:56:56;11.50;99.90
28767;DHT22;15921;52.034;20.650;2023-04-25T00:59:22;11.50;99.90
28767;DHT22;15921;52.034;20.650;2023-04-25T01:01:48;11.50;99.90
28767;DHT22;15921;52.034;20.650;2023-04-25T01:04:13;11.50;99.90
28767;DHT22;15921;52.034;20.650;2023-04-25T01:06:40;11.40;99.90
28767;DHT22;15921;52.034;20.650;2023-04-25T01:09:05;11.40;99.90
28767;DHT22;15921;52.034;20.650;2023-04-25T01:11:32;11.40;99.90
28767;DHT22;15921;52.034;20.650;2023-04-25T01:13:58;11.40;99.90
28767;DHT22;15921;52.034;20.650;2023-04-25T01:16:23;11.40;99.90
28767;DHT22;15921;52.034;20.650;2023-04-25T01:18:50;11.50;99.90
28767;DHT22;15921;52.034;20.650;2023-04-25T01:21:16;11.50;99.90
28767;DHT22;15921;52.034;20.650;2023-04-25T01:23:43;11.50;99.90
28767;DHT22;15921;52.034;20.650;2023-04-25T01:26:10;11.40;99.90
28767;DHT22;15921;52.034;20.650;2023-04-25T01:28:36;11.40;99.90
28767;DHT22;15921;52.034;20.650;2023-04-25T01:31:02;11.40;99.90
28767;DHT22;15921;52.034;20.650;2023-04-25T01:33:29;11.40;99.90
28767;DHT22;15921;52.034;20.650;2023-04-25T01:35:55;11.40;99.90
28767;DHT22;15921;52.034;20.650;2023-04-25T01:38:21;11.40;99.90
28767;DHT22;15921;52.034;20.650;2023-04-25T01:40:46;11.50;99.90
28767;DHT22;15921;52.034;20.650;2023-04-25T01:43:14;11.50;99.90
28767;DHT22;15921;52.034;20.650;2023-04-25T01:45:43;11.50;99.90
28767;DHT22;15921;52.034;20.650;2023-04-25T01:48:13;11.50;99.90
28767;DHT22;15921;52.034;20.650;2023-04-25T01:50:40;11.50;99.90
28767;DHT22;15921;52.034;20.650;2023-04-25T01:53:05;11.60;99.90
28767;DHT22;15921;52.034;20.650;2023-04-25T01:55:31;11.60;99.90
28767;DHT22;15921;52.034;20.650;2023-04-25T01:57:57;11.70;99.90
28767;DHT22;15921;52.034;20.650;2023-04-25T02:00:24;11.70;99.90
28767;DHT22;15921;52.034;20.650;2023-04-25T02:02:49;11.80;99.90
28767;DHT22;15921;52.034;20.650;2023-04-25T02:05:16;11.80;99.90
28767;DHT22;15921;52.034;20.650;2023-04-25T02:07:42;11.80;99.90
28767;DHT22;15921;52.034;20.650;2023-04-25T02:10:08;11.90;99.90
28767;DHT22;15921;52.034;20.650;2023-04-25T02:12:35;11.90;99.90
28767;DHT22;15921;52.034;20.650;2023-04-25T02:15:01;12.00;99.90
28767;DHT22;15921;52.034;20.650;2023-04-25T02:17:27;12.00;99.90
28767;DHT22;15921;52.034;20.650;2023-04-25T02:19:53;11.90;99.90
28767;DHT22;15921;52.034;20.650;2023-04-25T02:22:18;12.00;99.90
28767;DHT22;15921;52.034;20.650;2023-04-25T02:24:44;11.90;99.90
28767;DHT22;15921;52.034;20.650;2023-04-25T02:27:10;11.90;99.90
28767;DHT22;15921;52.034;20.650;2023-04-25T02:29:35;12.00;99.90
28767;DHT22;15921;52.034;20.650;2023-04-25T02:32:01;12.00;99.90
28767;DHT22;15921;52.034;20.650;2023-04-25T02:34:27;11.90;99.90
28767;DHT22;15921;52.034;20.650;2023-04-25T02:36:53;11.90;99.90
28767;DHT22;15921;52.034;20.650;2023-04-25T02:39:18;11.90;99.90
28767;DHT22;15921;52.034;20.650;2023-04-25T02:41:44;11.90;99.90
28767;DHT22;15921;52.034;20.650;2023-04-25T02:44:10;11.90;99.90
28767;DHT22;15921;52.034;20.650;2023-04-25T02:46:36;11.80;99.90
28767;DHT22;15921;52.034;20.650;2023-04-25T02:49:01;11.80;99.90
28767;DHT22;15921;52.034;20.650;2023-04-25T02:51:27;11.80;99.90
28767;DHT22;15921;52.034;20.650;2023-04-25T02:53:52;11.80;99.90
28767;DHT22;15921;52.034;20.650;2023-04-25T02:56:18;11.80;99.90
28767;DHT22;15921;52.034;20.650;2023-04-25T02:58:44;11.70;99.90
28767;DHT22;15921;52.034;20.650;2023-04-25T03:01:10;11.70;99.90
28767;DHT22;15921;52.034;20.650;2023-04-25T03:03:36;11.70;99.90
28767;DHT22;15921;52.034;20.650;2023-04-25T03:06:01;11.70;99.90
28767;DHT22;15921;52.034;20.650;2023-04-25T03:08:27;11.70;99.90
28767;DHT22;15921;52.034;20.650;2023-04-25T03:10:58;11.70;99.90
28767;DHT22;15921;52.034;20.650;2023-04-25T03:13:24;11.60;99.90
28767;DHT22;15921;52.034;20.650;2023-04-25T03:15:49;11.60;99.90
28767;DHT22;15921;52.034;20.650;2023-04-25T03:18:15;11.60;99.90
28767;DHT22;15921;52.034;20.650;2023-04-25T03:20:41;11.50;99.90
28767;DHT22;15921;52.034;20.650;2023-04-25T03:23:07;11.50;99.90
28767;DHT22;15921;52.034;20.650;2023-04-25T03:25:33;11.40;99.90
28767;DHT22;15921;52.034;20.650;2023-04-25T03:27:58;11.40;99.90
28767;DHT22;15921;52.034;20.650;2023-04-25T03:30:24;11.30;99.90
28767;DHT22;15921;52.034;20.650;2023-04-25T03:32:50;11.30;99.90
28767;DHT22;15921;52.034;20.650;2023-04-25T03:35:16;11.30;99.90
28767;DHT22;15921;52.034;20.650;2023-04-25T03:37:41;11.30;99.90
28767;DHT22;15921;52.034;20.650;2023-04-25T03:40:11;11.40;99.90
28767;DHT22;15921;52.034;20.650;2023-04-25T03:42:36;11.40;99.90
28767;DHT22;15921;52.034;20.650;2023-04-25T03:45:02;11.40;99.90
28767;DHT22;15921;52.034;20.650;2023-04-25T03:47:28;11.40;99.90
28767;DHT22;15921;52.034;20.650;2023-04-25T03:49:54;11.40;99.90
28767;DHT22;15921;52.034;20.650;2023-04-25T03:52:20;11.30;99.90
28767;DHT22;15921;52.034;20.650;2023-04-25T03:54:45;11.40;99.90
28767;DHT22;15921;52.034;20.650;2023-04-25T03:57:11;11.40;99.90
28767;DHT22;15921;52.034;20.650;2023-04-25T03:59:37;11.40;99.90
28767;DHT22;15921;52.034;20.650;2023-04-25T04:02:03;11.30;99.90
28767;DHT22;15921;52.034;20.650;2023-04-25T04:04:28;11.30;99.90
28767;DHT22;15921;52.034;20.650;2023-04-25T04:06:55;11.20;99.90
28767;DHT22;15921;52.034;20.650;2023-04-25T04:09:21;11.20;99.90
28767;DHT22;15921;52.034;20.650;2023-04-25T04:11:46;11.10;99.90
28767;DHT22;15921;52.034;20.650;2023-04-25T04:14:12;11.10;99.90
28767;DHT22;15921;52.034;20.650;2023-04-25T04:16:38;11.10;99.90
28767;DHT22;15921;52.034;20.650;2023-04-25T04:19:06;11.10;99.90
28767;DHT22;15921;52.034;20.650;2023-04-25T04:21:32;11.10;99.90
28767;DHT22;15921;52.034;20.650;2023-04-25T04:23:58;11.00;99.90
28767;DHT22;15921;52.034;20.650;2023-04-25T04:26:25;11.00;99.90
28767;DHT22;15921;52.034;20.650;2023-04-25T04:28:51;11.00;99.90
28767;DHT22;15921;52.034;20.650;2023-04-25T04:31:20;11.00;99.90
28767;DHT22;15921;52.034;20.650;2023-04-25T04:33:45;11.00;99.90
28767;DHT22;15921;52.034;20.650;2023-04-25T04:36:12;10.90;99.90
28767;DHT22;15921;52.034;20.650;2023-04-25T04:38:38;10.90;99.90
28767;DHT22;15921;52.034;20.650;2023-04-25T04:41:04;10.90;99.90
28767;DHT22;15921;52.034;20.650;2023-04-25T04:43:29;10.80;99.90
28767;DHT22;15921;52.034;20.650;2023-04-25T04:45:55;10.80;99.90
28767;DHT22;15921;52.034;20.650;2023-04-25T04:48:25;10.80;99.90
28767;DHT22;15921;52.034;20.650;2023-04-25T04:50:51;10.80;99.90
28767;DHT22;15921;52.034;20.650;2023-04-25T04:53:16;10.80;99.90
28767;DHT22;15921;52.034;20.650;2023-04-25T04:55:42;10.80;99.90
28767;DHT22;15921;52.034;20.650;2023-04-25T04:58:08;10.80;99.90
28767;DHT22;15921;52.034;20.650;2023-04-25T05:00:34;10.80;99.90
28767;DHT22;15921;52.034;20.650;2023-04-25T05:03:00;10.80;99.90
28767;DHT22;15921;52.034;20.650;2023-04-25T05:05:26;10.90;99.90
28767;DHT22;15921;52.034;20.650;2023-04-25T05:07:51;10.90;99.90
28767;DHT22;15921;52.034;20.650;2023-04-25T05:10:18;10.80;99.90
28767;DHT22;15921;52.034;20.650;2023-04-25T05:12:44;10.80;99.90
28767;DHT22;15921;52.034;20.650;2023-04-25T05:15:10;10.80;99.90
28767;DHT22;15921;52.034;20.650;2023-04-25T05:17:36;10.80;99.90
28767;DHT22;15921;52.034;20.650;2023-04-25T05:20:02;10.80;99.90
28767;DHT22;15921;52.034;20.650;2023-04-25T05:22:28;10.80;99.90
28767;DHT22;15921;52.034;20.650;2023-04-25T05:24:54;10.80;99.90
28767;DHT22;15921;52.034;20.650;2023-04-25T05:27:20;10.80;99.90
28767;DHT22;15921;52.034;20.650;2023-04-25T05:29:45;10.80;99.90
28767;DHT22;15921;52.034;20.650;2023-04-25T05:32:11;10.80;99.90
28767;DHT22;15921;52.034;20.650;2023-04-25T05:34:37;10.80;99.90
28767;DHT22;15921;52.034;20.650;2023-04-25T05:37:03;10.80;99.90
28767;DHT22;15921;52.034;20.650;2023-04-25T05:39:28;10.80;99.90
28767;DHT22;15921;52.034;20.650;2023-04-25T05:41:54;10.70;99.90
28767;DHT22;15921;52.034;20.650;2023-04-25T05:44:20;10.60;99.90
28767;DHT22;15921;52.034;20.650;2023-04-25T05:46:45;10.50;99.90
28767;DHT22;15921;52.034;20.650;2023-04-25T05:49:11;10.40;99.90
28767;DHT22;15921;52.034;20.650;2023-04-25T05:51:37;10.30;99.90
28767;DHT22;15921;52.034;20.650;2023-04-25T05:54:02;10.30;99.90
28767;DHT22;15921;52.034;20.650;2023-04-25T05:56:28;10.20;99.90
28767;DHT22;15921;52.034;20.650;2023-04-25T05:58:54;10.20;99.90
28767;DHT22;15921;52.034;20.650;2023-04-25T06:01:22;10.20;99.90
28767;DHT22;15921;52.034;20.650;2023-04-25T06:03:48;10.20;99.90
28767;DHT22;15921;52.034;20.650;2023-04-25T06:06:14;10.20;99.90
28767;DHT22;15921;52.034;20.650;2023-04-25T06:08:40;10.30;99.90
28767;DHT22;15921;52.034;20.650;2023-04-25T06:11:06;10.30;99.90
28767;DHT22;15921;52.034;20.650;2023-04-25T06:13:32;10.20;99.90
28767;DHT22;15921;52.034;20.650;2023-04-25T06:15:58;10.20;99.90
28767;DHT22;15921;52.034;20.650;2023-04-25T06:18:23;10.30;99.90
28767;DHT22;15921;52.034;20.650;2023-04-25T06:20:49;10.30;99.90
28767;DHT22;15921;52.034;20.650;2023-04-25T06:23:15;10.50;99.90
28767;DHT22;15921;52.034;20.650;2023-04-25T06:25:41;10.60;99.90
28767;DHT22;15921;52.034;20.650;2023-04-25T06:28:06;10.70;99.90
28767;DHT22;15921;52.034;20.650;2023-04-25T06:30:32;10.80;99.90
28767;DHT22;15921;52.034;20.650;2023-04-25T06:32:58;10.80;99.90
28767;DHT22;15921;52.034;20.650;2023-04-25T06:35:23;10.80;99.90
28767;DHT22;15921;52.034;20.650;2023-04-25T06:37:49;10.80;99.90
28767;DHT22;15921;52.034;20.650;2023-04-25T06:40:15;10.70;99.90
28767;DHT22;15921;52.034;20.650;2023-04-25T06:42:42;10.80;99.90
28767;DHT22;15921;52.034;20.650;2023-04-25T06:45:08;10.80;99.90
28767;DHT22;15921;52.034;20.650;2023-04-25T06:47:34;10.90;99.90
28767;DHT22;15921;52.034;20.650;2023-04-25T06:50:00;11.10;99.90
28767;DHT22;15921;52.034;20.650;2023-04-25T06:52:26;11.30;99.90
28767;DHT22;15921;52.034;20.650;2023-04-25T06:54:51;11.40;99.90
28767;DHT22;15921;52.034;20.650;2023-04-25T06:57:17;11.50;99.90
28767;DHT22;15921;52.034;20.650;2023-04-25T06:59:42;11.50;99.90
28767;DHT22;15921;52.034;20.650;2023-04-25T07:02:08;11.50;99.90
28767;DHT22;15921;52.034;20.650;2023-04-25T07:04:34;11.40;99.90
28767;DHT22;15921;52.034;20.650;2023-04-25T07:06:59;11.20;99.90
28767;DHT22;15921;52.034;20.650;2023-04-25T07:09:28;11.10;99.90
28767;DHT22;15921;52.034;20.650;2023-04-25T07:11:53;11.00;99.90
28767;DHT22;15921;52.034;20.650;2023-04-25T07:14:19;10.90;99.90
28767;DHT22;15921;52.034;20.650;2023-04-25T07:16:45;10.80;99.90
28767;DHT22;15921;52.034;20.650;2023-04-25T07:19:11;10.70;99.90
28767;DHT22;15921;52.034;20.650;2023-04-25T07:21:37;10.60;99.90
28767;DHT22;15921;52.034;20.650;2023-04-25T07:24:03;10.60;99.90
28767;DHT22;15921;52.034;20.650;2023-04-25T07:26:28;10.60;99.90
28767;DHT22;15921;52.034;20.650;2023-04-25T07:28:54;10.70;99.90
28767;DHT22;15921;52.034;20.650;2023-04-25T07:31:20;10.80;99.90
28767;DHT22;15921;52.034;20.650;2023-04-25T07:33:46;10.80;99.90
28767;DHT22;15921;52.034;20.650;2023-04-25T07:36:12;10.90;99.90
28767;DHT22;15921;52.034;20.650;2023-04-25T07:38:39;11.00;99.90
28767;DHT22;15921;52.034;20.650;2023-04-25T07:41:05;11.10;99.90
28767;DHT22;15921;52.034;20.650;2023-04-25T07:43:30;11.20;99.90
28767;DHT22;15921;52.034;20.650;2023-04-25T07:45:56;11.40;99.90
28767;DHT22;15921;52.034;20.650;2023-04-25T07:48:22;11.30;99.90
28767;DHT22;15921;52.034;20.650;2023-04-25T07:50:49;11.10;99.90
28767;DHT22;15921;52.034;20.650;2023-04-25T07:53:15;11.00;99.90
28767;DHT22;15921;52.034;20.650;2023-04-25T07:55:41;11.00;99.90
28767;DHT22;15921;52.034;20.650;2023-04-25T07:58:07;11.10;99.90
28767;DHT22;15921;52.034;20.650;2023-04-25T08:00:33;11.20;99.90
28767;DHT22;15921;52.034;20.650;2023-04-25T08:02:59;11.30;99.90
28767;DHT22;15921;52.034;20.650;2023-04-25T08:05:24;11.40;99.90
28767;DHT22;15921;52.034;20.650;2023-04-25T08:07:50;11.60;99.90
28767;DHT22;15921;52.034;20.650;2023-04-25T08:10:16;11.70;99.90
28767;DHT22;15921;52.034;20.650;2023-04-25T08:12:41;11.80;99.90
28767;DHT22;15921;52.034;20.650;2023-04-25T08:15:08;11.80;99.90
28767;DHT22;15921;52.034;20.650;2023-04-25T08:17:34;11.70;99.90
28767;DHT22;15921;52.034;20.650;2023-04-25T08:19:59;11.50;99.90
28767;DHT22;15921;52.034;20.650;2023-04-25T08:22:25;11.50;99.90
28767;DHT22;15921;52.034;20.650;2023-04-25T08:24:51;11.60;99.90
28767;DHT22;15921;52.034;20.650;2023-04-25T08:27:18;11.60;99.90
28767;DHT22;15921;52.034;20.650;2023-04-25T08:29:43;11.60;99.90
28767;DHT22;15921;52.034;20.650;2023-04-25T08:32:09;11.60;99.90
28767;DHT22;15921;52.034;20.650;2023-04-25T08:34:35;11.70;99.90
28767;DHT22;15921;52.034;20.650;2023-04-25T08:37:02;11.90;99.90
28767;DHT22;15921;52.034;20.650;2023-04-25T08:39:29;12.20;99.90
28767;DHT22;15921;52.034;20.650;2023-04-25T08:41:56;12.30;99.90
28767;DHT22;15921;52.034;20.650;2023-04-25T08:44:22;12.20;99.90
28767;DHT22;15921;52.034;20.650;2023-04-25T08:46:49;12.20;99.90
28767;DHT22;15921;52.034;20.650;2023-04-25T08:49:17;12.20;99.90
28767;DHT22;15921;52.034;20.650;2023-04-25T08:51:47;12.40;99.90
28767;DHT22;15921;52.034;20.650;2023-04-25T08:54:16;12.40;99.90
28767;DHT22;15921;52.034;20.650;2023-04-25T08:56:45;12.60;99.90
28767;DHT22;15921;52.034;20.650;2023-04-25T08:59:13;12.80;99.90
28767;DHT22;15921;52.034;20.650;2023-04-25T09:01:39;12.90;99.90
28767;DHT22;15921;52.034;20.650;2023-04-25T09:04:05;12.80;99.90
28767;DHT22;15921;52.034;20.650;2023-04-25T09:06:31;12.70;99.90
28767;DHT22;15921;52.034;20.650;2023-04-25T09:09:08;12.50;99.90
28767;DHT22;15921;52.034;20.650;2023-04-25T09:11:35;12.60;99.90
28767;DHT22;15921;52.034;20.650;2023-04-25T09:14:22;12.50;99.90
28767;DHT22;15921;52.034;20.650;2023-04-25T09:19:25;12.50;99.90
28767;DHT22;15921;52.034;20.650;2023-04-25T09:21:54;12.30;99.90
28767;DHT22;15921;52.034;20.650;2023-04-25T09:24:41;12.30;99.90
28767;DHT22;15921;52.034;20.650;2023-04-25T09:27:10;12.50;99.90
28767;DHT22;15921;52.034;20.650;2023-04-25T09:29:38;12.40;99.90
28767;DHT22;15921;52.034;20.650;2023-04-25T09:32:23;12.40;99.90
28767;DHT22;15921;52.034;20.650;2023-04-25T09:34:56;12.40;99.90
28767;DHT22;15921;52.034;20.650;2023-04-25T09:37:23;12.40;99.90
28767;DHT22;15921;52.034;20.650;2023-04-25T09:39:54;12.40;99.90
28767;DHT22;15921;52.034;20.650;2023-04-25T09:42:24;12.40;99.90
28767;DHT22;15921;52.034;20.650;2023-04-25T09:44:55;12.30;99.90
28767;DHT22;15921;52.034;20.650;2023-04-25T09:47:24;12.40;99.90
28767;DHT22;15921;52.034;20.650;2023-04-25T09:49:51;12.30;99.90
28767;DHT22;15921;52.034;20.650;2023-04-25T09:52:18;12.20;99.90
28767;DHT22;15921;52.034;20.650;2023-04-25T09:54:47;12.20;99.90
28767;DHT22;15921;52.034;20.650;2023-04-25T09:57:17;12.30;99.90
28767;DHT22;15921;52.034;20.650;2023-04-25T09:59:51;12.40;99.90
28767;DHT22;15921;52.034;20.650;2023-04-25T10:02:19;12.40;99.90
28767;DHT22;15921;52.034;20.650;2023-04-25T10:04:49;12.60;99.90
28767;DHT22;15921;52.034;20.650;2023-04-25T10:07:17;12.60;99.90
28767;DHT22;15921;52.034;20.650;2023-04-25T10:09:45;12.80;99.90
28767;DHT22;15921;52.034;20.650;2023-04-25T10:12:12;12.90;99.90
28767;DHT22;15921;52.034;20.650;2023-04-25T10:14:38;13.10;99.90
28767;DHT22;15921;52.034;20.650;2023-04-25T10:17:05;13.30;99.90
28767;DHT22;15921;52.034;20.650;2023-04-25T10:19:32;13.40;99.90
28767;DHT22;15921;52.034;20.650;2023-04-25T10:22:03;13.40;99.90
28767;DHT22;15921;52.034;20.650;2023-04-25T10:24:30;13.40;99.90
28767;DHT22;15921;52.034;20.650;2023-04-25T10:26:56;13.20;99.90
28767;DHT22;15921;52.034;20.650;2023-04-25T10:29:24;13.00;99.90
28767;DHT22;15921;52.034;20.650;2023-04-25T10:31:50;12.70;99.90
28767;DHT22;15921;52.034;20.650;2023-04-25T10:34:19;12.60;99.90
28767;DHT22;15921;52.034;20.650;2023-04-25T10:36:52;12.50;99.90
28767;DHT22;15921;52.034;20.650;2023-04-25T10:39:23;12.40;99.90
28767;DHT22;15921;52.034;20.650;2023-04-25T10:41:56;12.40;99.90
28767;DHT22;15921;52.034;20.650;2023-04-25T10:44:26;12.30;99.90
28767;DHT22;15921;52.034;20.650;2023-04-25T10:46:51;12.30;99.90
28767;DHT22;15921;52.034;20.650;2023-04-25T10:49:43;12.30;99.90
28767;DHT22;15921;52.034;20.650;2023-04-25T10:54:47;12.10;99.90
28767;DHT22;15921;52.034;20.650;2023-04-25T11:00:17;12.20;99.90
28767;DHT22;15921;52.034;20.650;2023-04-25T11:02:46;12.40;99.90
28767;DHT22;15921;52.034;20.650;2023-04-25T11:05:30;12.50;99.90
28767;DHT22;15921;52.034;20.650;2023-04-25T11:07:58;12.60;99.90
28767;DHT22;15921;52.034;20.650;2023-04-25T11:10:28;12.70;99.90
28767;DHT22;15921;52.034;20.650;2023-04-25T11:12:54;12.80;99.90
28767;DHT22;15921;52.034;20.650;2023-04-25T11:15:20;12.90;99.90
28767;DHT22;15921;52.034;20.650;2023-04-25T11:17:45;12.80;99.90
28767;DHT22;15921;52.034;20.650;2023-04-25T11:20:12;12.80;99.90
28767;DHT22;15921;52.034;20.650;2023-04-25T11:22:39;12.80;99.90
28767;DHT22;15921;52.034;20.650;2023-04-25T11:25:08;12.70;99.90
28767;DHT22;15921;52.034;20.650;2023-04-25T11:27:38;12.80;99.90
28767;DHT22;15921;52.034;20.650;2023-04-25T11:30:14;12.70;99.90
28767;DHT22;15921;52.034;20.650;2023-04-25T11:32:43;12.90;99.90
28767;DHT22;15921;52.034;20.650;2023-04-25T11:35:10;13.10;99.90
28767;DHT22;15921;52.034;20.650;2023-04-25T11:37:36;13.30;99.90
28767;DHT22;15921;52.034;20.650;2023-04-25T11:40:05;13.40;99.90
28767;DHT22;15921;52.034;20.650;2023-04-25T11:42:37;13.50;99.90
28767;DHT22;15921;52.034;20.650;2023-04-25T11:45:04;13.50;99.90
28767;DHT22;15921;52.034;20.650;2023-04-25T11:47:31;13.70;99.90
28767;DHT22;15921;52.034;20.650;2023-04-25T11:50:04;13.70;99.90
28767;DHT22;15921;52.034;20.650;2023-04-25T11:55:12;13.90;99.90
28767;DHT22;15921;52.034;20.650;2023-04-25T11:57:40;13.90;99.90
28767;DHT22;15921;52.034;20.650;2023-04-25T12:00:20;14.00;99.90
28767;DHT22;15921;52.034;20.650;2023-04-25T12:02:50;14.00;99.90
28767;DHT22;15921;52.034;20.650;2023-04-25T12:05:16;14.00;99.90
28767;DHT22;15921;52.034;20.650;2023-04-25T12:07:42;13.80;99.90
28767;DHT22;15921;52.034;20.650;2023-04-25T12:10:13;13.70;99.90
28767;DHT22;15921;52.034;20.650;2023-04-25T12:12:42;13.70;99.90
28767;DHT22;15921;52.034;20.650;2023-04-25T12:17:44;13.70;99.90
28767;DHT22;15921;52.034;20.650;2023-04-25T12:20:18;13.80;99.90
28767;DHT22;15921;52.034;20.650;2023-04-25T12:22:46;13.90;99.90
28767;DHT22;15921;52.034;20.650;2023-04-25T12:25:13;13.80;99.90
28767;DHT22;15921;52.034;20.650;2023-04-25T12:27:39;13.80;99.90
28767;DHT22;15921;52.034;20.650;2023-04-25T12:30:09;13.70;99.90
28767;DHT22;15921;52.034;20.650;2023-04-25T12:32:36;13.70;99.90
28767;DHT22;15921;52.034;20.650;2023-04-25T12:35:04;13.50;99.90
28767;DHT22;15921;52.034;20.650;2023-04-25T12:37:30;13.60;99.90
28767;DHT22;15921;52.034;20.650;2023-04-25T12:39:56;13.70;99.90
28767;DHT22;15921;52.034;20.650;2023-04-25T12:42:21;13.90;99.90
28767;DHT22;15921;52.034;20.650;2023-04-25T12:44:47;14.00;99.90
28767;DHT22;15921;52.034;20.650;2023-04-25T12:47:14;14.00;99.90
28767;DHT22;15921;52.034;20.650;2023-04-25T12:49:40;14.00;99.90
28767;DHT22;15921;52.034;20.650;2023-04-25T12:52:05;14.00;99.90
28767;DHT22;15921;52.034;20.650;2023-04-25T12:54:31;14.00;99.90
28767;DHT22;15921;52.034;20.650;2023-04-25T12:56:57;14.20;99.90
28767;DHT22;15921;52.034;20.650;2023-04-25T12:59:23;14.30;99.90
28767;DHT22;15921;52.034;20.650;2023-04-25T13:01:49;14.20;99.90
28767;DHT22;15921;52.034;20.650;2023-04-25T13:04:14;14.20;99.90
28767;DHT22;15921;52.034;20.650;2023-04-25T13:06:41;14.30;99.90
28767;DHT22;15921;52.034;20.650;2023-04-25T13:09:07;14.40;99.90
28767;DHT22;15921;52.034;20.650;2023-04-25T13:11:32;14.40;99.90
28767;DHT22;15921;52.034;20.650;2023-04-25T13:13:58;14.70;99.90
28767;DHT22;15921;52.034;20.650;2023-04-25T13:16:24;14.90;99.90
28767;DHT22;15921;52.034;20.650;2023-04-25T13:18:49;14.90;99.90
28767;DHT22;15921;52.034;20.650;2023-04-25T13:21:15;14.70;99.90
28767;DHT22;15921;52.034;20.650;2023-04-25T13:23:41;14.50;99.90
28767;DHT22;15921;52.034;20.650;2023-04-25T13:26:08;14.50;99.90
28767;DHT22;15921;52.034;20.650;2023-04-25T13:28:34;14.40;99.90
28767;DHT22;15921;52.034;20.650;2023-04-25T13:30:59;14.30;99.90
28767;DHT22;15921;52.034;20.650;2023-04-25T13:33:25;14.30;99.90
28767;DHT22;15921;52.034;20.650;2023-04-25T13:35:51;14.00;99.90
28767;DHT22;15921;52.034;20.650;2023-04-25T13:38:23;13.80;99.90
28767;DHT22;15921;52.034;20.650;2023-04-25T13:40:49;13.50;99.90
28767;DHT22;15921;52.034;20.650;2023-04-25T13:43:18;13.30;99.90
28767;DHT22;15921;52.034;20.650;2023-04-25T13:45:43;13.20;99.90
28767;DHT22;15921;52.034;20.650;2023-04-25T13:48:10;13.10;99.90
28767;DHT22;15921;52.034;20.650;2023-04-25T13:50:35;13.10;99.90
28767;DHT22;15921;52.034;20.650;2023-04-25T13:53:01;12.90;99.90
28767;DHT22;15921;52.034;20.650;2023-04-25T13:55:27;12.90;99.90
28767;DHT22;15921;52.034;20.650;2023-04-25T13:57:52;12.80;99.90
28767;DHT22;15921;52.034;20.650;2023-04-25T14:00:18;12.70;99.90
28767;DHT22;15921;52.034;20.650;2023-04-25T14:02:45;12.60;99.90
28767;DHT22;15921;52.034;20.650;2023-04-25T14:05:11;12.40;99.90
28767;DHT22;15921;52.034;20.650;2023-04-25T14:07:36;12.30;99.90
28767;DHT22;15921;52.034;20.650;2023-04-25T14:10:03;12.20;99.90
28767;DHT22;15921;52.034;20.650;2023-04-25T14:12:30;12.10;99.90
28767;DHT22;15921;52.034;20.650;2023-04-25T14:14:56;12.00;99.90
28767;DHT22;15921;52.034;20.650;2023-04-25T14:17:21;11.90;99.90
28767;DHT22;15921;52.034;20.650;2023-04-25T14:19:47;11.70;99.90
28767;DHT22;15921;52.034;20.650;2023-04-25T14:22:14;11.60;99.90
28767;DHT22;15921;52.034;20.650;2023-04-25T14:24:41;11.50;99.90
28767;DHT22;15921;52.034;20.650;2023-04-25T14:27:07;11.50;99.90
28767;DHT22;15921;52.034;20.650;2023-04-25T14:29:33;11.40;99.90
28767;DHT22;15921;52.034;20.650;2023-04-25T14:31:58;11.40;99.90
28767;DHT22;15921;52.034;20.650;2023-04-25T14:34:25;11.30;99.90
28767;DHT22;15921;52.034;20.650;2023-04-25T14:36:51;11.30;99.90
28767;DHT22;15921;52.034;20.650;2023-04-25T14:39:17;11.30;99.90
28767;DHT22;15921;52.034;20.650;2023-04-25T14:41:44;11.30;99.90
28767;DHT22;15921;52.034;20.650;2023-04-25T14:44:09;11.30;99.90
28767;DHT22;15921;52.034;20.650;2023-04-25T14:46:36;11.30;99.90
28767;DHT22;15921;52.034;20.650;2023-04-25T14:49:03;11.30;99.90
28767;DHT22;15921;52.034;20.650;2023-04-25T14:51:28;11.40;99.90
28767;DHT22;15921;52.034;20.650;2023-04-25T14:53:55;11.40;99.90
28767;DHT22;15921;52.034;20.650;2023-04-25T14:56:21;11.40;99.90
28767;DHT22;15921;52.034;20.650;2023-04-25T14:58:46;11.40;99.90
28767;DHT22;15921;52.034;20.650;2023-04-25T15:01:12;11.30;99.90
28767;DHT22;15921;52.034;20.650;2023-04-25T15:03:39;11.30;99.90
28767;DHT22;15921;52.034;20.650;2023-04-25T15:06:05;11.20;99.90
28767;DHT22;15921;52.034;20.650;2023-04-25T15:08:31;11.10;99.90
28767;DHT22;15921;52.034;20.650;2023-04-25T15:10:58;11.10;99.90
28767;DHT22;15921;52.034;20.650;2023-04-25T15:13:24;11.20;99.90
28767;DHT22;15921;52.034;20.650;2023-04-25T15:15:50;11.20;99.90
28767;DHT22;15921;52.034;20.650;2023-04-25T15:18:19;11.20;99.90
28767;DHT22;15921;52.034;20.650;2023-04-25T15:20:47;11.10;99.90
28767;DHT22;15921;52.034;20.650;2023-04-25T15:23:12;11.10;99.90
28767;DHT22;15921;52.034;20.650;2023-04-25T15:25:38;11.00;99.90